sensor_id;sensor_type;location;lat;lon;timestamp;pressure;altitude;pressure_sealevel;temperature;humidity
72409;BME280;60402;48.082;11.628;2024-01-07T00:00:39;94448.78;;;1.04;100.00
72409;BME280;60402;48.082;11.628;2024-01-07T00:03:25;94471.34;;;1.17;100.00
72409;BME280;60402;48.082;11.628;2024-01-07T00:06:11;94478.03;;;1.26;100.00
72409;BME280;60402;48.082;11.628;2024-01-07T00:08:56;94482.38;;;1.31;100.00
72409;BME280;60402;48.082;11.628;2024-01-07T00:11:42;94465.38;;;1.18;100.00
72409;BME280;60402;48.082;11.628;2024-01-07T00:14:28;94453.88;;;1.13;100.00
72409;BME280;60402;48.082;11.628;2024-01-07T00:17:13;94459.03;;;1.18;100.00
72409;BME280;60402;48.082;11.628;2024-01-07T00:19:59;94467.75;;;1.20;100.00
72409;BME280;60402;48.082;11.628;2024-01-07T00:22:45;94472.88;;;1.25;100.00
72409;BME280;60402;48.082;11.628;2024-01-07T00:25:30;94470.94;;;1.18;100.00
72409;BME280;60402;48.082;11.628;2024-01-07T00:28:16;94475.66;;;1.25;100.00
72409;BME280;60402;48.082;11.628;2024-01-07T00:31:02;94481.63;;;1.23;100.00
72409;BME280;60402;48.082;11.628;2024-01-07T00:33:47;94462.16;;;1.23;100.00
72409;BME280;60402;48.082;11.628;2024-01-07T00:36:33;94470.91;;;1.22;100.00
72409;BME280;60402;48.082;11.628;2024-01-07T00:39:19;94475.66;;;1.25;100.00
72409;BME280;60402;48.082;11.628;2024-01-07T00:42:04;94474.13;;;1.17;100.00
72409;BME280;60402;48.082;11.628;2024-01-07T00:44:50;94468.19;;;1.15;100.00
72409;BME280;60402;48.082;11.628;2024-01-07T00:47:36;94474.06;;;1.27;100.00
72409;BME280;60402;48.082;11.628;2024-01-07T00:50:21;94454.72;;;1.10;100.00
72409;BME280;60402;48.082;11.628;2024-01-07T00:53:07;94453.47;;;1.14;100.00
72409;BME280;60402;48.082;11.628;2024-01-07T00:55:53;94479.66;;;1.20;100.00
72409;BME280;60402;48.082;11.628;2024-01-07T00:58:38;94457.84;;;1.15;100.00
72409;BME280;60402;48.082;11.628;2024-01-07T01:01:24;94453.06;;;1.16;100.00
72409;BME280;60402;48.082;11.628;2024-01-07T01:04:09;94453.53;;;1.07;100.00
72409;BME280;60402;48.082;11.628;2024-01-07T01:06:55;94474.09;;;1.20;100.00
72409;BME280;60402;48.082;11.628;2024-01-07T01:09:41;94460.66;;;1.08;100.00
72409;BME280;60402;48.082;11.628;2024-01-07T01:12:26;94461.88;;;1.07;100.00
72409;BME280;60402;48.082;11.628;2024-01-07T01:15:12;94471.72;;;1.19;100.00
72409;BME280;60402;48.082;11.628;2024-01-07T01:17:58;94480.44;;;1.21;100.00
72409;BME280;60402;48.082;11.628;2024-01-07T01:20:44;94462.28;;;1.09;100.00
72409;BME280;60402;48.082;11.628;2024-01-07T01:23:29;94496.78;;;1.19;100.00
72409;BME280;60402;48.082;11.628;2024-01-07T01:26:15;94489.22;;;1.19;100.00
72409;BME280;60402;48.082;11.628;2024-01-07T01:29:00;94485.22;;;1.24;100.00
72409;BME280;60402;48.082;11.628;2024-01-07T01:31:46;94491.53;;;1.28;100.00
72409;BME280;60402;48.082;11.628;2024-01-07T01:34:32;94479.22;;;1.25;100.00
72409;BME280;60402;48.082;11.628;2024-01-07T01:37:17;94473.69;;;1.22;100.00
72409;BME280;60402;48.082;11.628;2024-01-07T01:40:04;94478.88;;;1.20;100.00
72409;BME280;60402;48.082;11.628;2024-01-07T01:42:49;94484.38;;;1.27;100.00
72409;BME280;60402;48.082;11.628;2024-01-07T01:45:35;94474.09;;;1.24;100.00
72409;BME280;60402;48.082;11.628;2024-01-07T01:48:22;94479.63;;;1.27;100.00
72409;BME280;60402;48.082;11.628;2024-01-07T01:51:08;94486.00;;;1.24;100.00
72409;BME280;60402;48.082;11.628;2024-01-07T01:53:54;94475.69;;;1.21;100.00
72409;BME280;60402;48.082;11.628;2024-01-07T01:56:40;94491.50;;;1.32;100.00
72409;BME280;60402;48.082;11.628;2024-01-07T01:59:25;94486.03;;;1.21;100.00
72409;BME280;60402;48.082;11.628;2024-01-07T02:02:11;94476.88;;;1.20;100.00
72409;BME280;60402;48.082;11.628;2024-01-07T02:04:57;94458.38;;;0.99;100.00
72409;BME280;60402;48.082;11.628;2024-01-07T02:07:43;94463.03;;;1.13;100.00
72409;BME280;60402;48.082;11.628;2024-01-07T02:10:29;94457.13;;;1.04;100.00
72409;BME280;60402;48.082;11.628;2024-01-07T02:13:19;94466.63;;;1.10;100.00
72409;BME280;60402;48.082;11.628;2024-01-07T02:16:05;94467.41;;;1.11;100.00
72409;BME280;60402;48.082;11.628;2024-01-07T02:18:51;94476.63;;;1.04;100.00
72409;BME280;60402;48.082;11.628;2024-01-07T02:21:36;94466.97;;;1.16;100.00
72409;BME280;60402;48.082;11.628;2024-01-07T02:24:22;94486.44;;;1.19;100.00
72409;BME280;60402;48.082;11.628;2024-01-07T02:27:08;94483.31;;;1.10;100.00
72409;BME280;60402;48.082;11.628;2024-01-07T02:29:54;94448.06;;;0.89;100.00
72409;BME280;60402;48.082;11.628;2024-01-07T02:32:39;94484.53;;;1.09;100.00
72409;BME280;60402;48.082;11.628;2024-01-07T02:35:25;94472.63;;;1.05;100.00
72409;BME280;60402;48.082;11.628;2024-01-07T02:38:11;94468.66;;;1.02;100.00
72409;BME280;60402;48.082;11.628;2024-01-07T02:40:56;94462.63;;;1.15;100.00
72409;BME280;60402;48.082;11.628;2024-01-07T02:43:42;94484.13;;;1.07;100.00
72409;BME280;60402;48.082;11.628;2024-01-07T02:46:28;94471.88;;;0.97;100.00
72409;BME280;60402;48.082;11.628;2024-01-07T02:49:13;94486.53;;;1.09;100.00
72409;BME280;60402;48.082;11.628;2024-01-07T02:51:59;94467.94;;;0.95;100.00
72409;BME280;60402;48.082;11.628;2024-01-07T02:54:45;94484.91;;;1.08;100.00
72409;BME280;60402;48.082;11.628;2024-01-07T02:57:30;94459.16;;;0.96;100.00
72409;BME280;60402;48.082;11.628;2024-01-07T03:00:16;94482.91;;;1.12;100.00
72409;BME280;60402;48.082;11.628;2024-01-07T03:03:02;94464.66;;;1.07;100.00
72409;BME280;60402;48.082;11.628;2024-01-07T03:05:48;94478.91;;;1.13;100.00
72409;BME280;60402;48.082;11.628;2024-01-07T03:08:34;94478.91;;;1.16;100.00
72409;BME280;60402;48.082;11.628;2024-01-07T03:11:19;94452.75;;;1.03;100.00
72409;BME280;60402;48.082;11.628;2024-01-07T03:14:05;94472.63;;;1.05;100.00
72409;BME280;60402;48.082;11.628;2024-01-07T03:16:51;94448.47;;;0.95;100.00
72409;BME280;60402;48.082;11.628;2024-01-07T03:19:39;94463.41;;;1.15;100.00
72409;BME280;60402;48.082;11.628;2024-01-07T03:22:25;94475.75;;;1.11;100.00
72409;BME280;60402;48.082;11.628;2024-01-07T03:25:10;94457.53;;;1.02;100.00
72409;BME280;60402;48.082;11.628;2024-01-07T03:27:56;94463.88;;;1.03;100.00
72409;BME280;60402;48.082;11.628;2024-01-07T03:30:42;94473.84;;;1.04;100.00
72409;BME280;60402;48.082;11.628;2024-01-07T03:33:27;94468.66;;;1.02;100.00
72409;BME280;60402;48.082;11.628;2024-01-07T03:36:14;94471.78;;;1.08;100.00
72409;BME280;60402;48.082;11.628;2024-01-07T03:38:59;94482.91;;;1.12;100.00
72409;BME280;60402;48.082;11.628;2024-01-07T03:41:45;94475.34;;;1.12;100.00
72409;BME280;60402;48.082;11.628;2024-01-07T03:44:31;94463.06;;;1.06;100.00
72409;BME280;60402;48.082;11.628;2024-01-07T03:47:17;94492.03;;;1.16;100.00
72409;BME280;60402;48.082;11.628;2024-01-07T03:50:02;94488.09;;;1.10;100.00
72409;BME280;60402;48.082;11.628;2024-01-07T03:52:48;94475.81;;;1.04;100.00
72409;BME280;60402;48.082;11.628;2024-01-07T03:55:34;94484.09;;;1.11;100.00
72409;BME280;60402;48.082;11.628;2024-01-07T03:58:19;94484.91;;;1.08;100.00
72409;BME280;60402;48.082;11.628;2024-01-07T04:01:05;94461.94;;;0.96;100.00
72409;BME280;60402;48.082;11.628;2024-01-07T04:03:51;94480.56;;;1.03;100.00
72409;BME280;60402;48.082;11.628;2024-01-07T04:06:36;94481.00;;;1.01;100.00
72409;BME280;60402;48.082;11.628;2024-01-07T04:09:22;94494.44;;;1.10;100.00
72409;BME280;60402;48.082;11.628;2024-01-07T04:12:08;94490.09;;;1.09;100.00
72409;BME280;60402;48.082;11.628;2024-01-07T04:14:53;94494.00;;;1.15;100.00
72409;BME280;60402;48.082;11.628;2024-01-07T04:17:39;94493.16;;;1.22;100.00
72409;BME280;60402;48.082;11.628;2024-01-07T04:20:25;94488.88;;;1.14;100.00
72409;BME280;60402;48.082;11.628;2024-01-07T04:23:10;94479.41;;;1.00;100.00
72409;BME280;60402;48.082;11.628;2024-01-07T04:25:56;94491.34;;;0.97;100.00
72409;BME280;60402;48.082;11.628;2024-01-07T04:28:42;94493.75;;;0.99;100.00
72409;BME280;60402;48.082;11.628;2024-01-07T04:31:28;94477.78;;;1.03;100.00
72409;BME280;60402;48.082;11.628;2024-01-07T04:34:14;94483.78;;;0.98;100.00
72409;BME280;60402;48.082;11.628;2024-01-07T04:36:59;94508.34;;;1.14;100.00
72409;BME280;60402;48.082;11.628;2024-01-07T04:39:45;94477.84;;;0.96;100.00
72409;BME280;60402;48.082;11.628;2024-01-07T04:42:30;94492.13;;;0.98;100.00
72409;BME280;60402;48.082;11.628;2024-01-07T04:45:16;94504.38;;;1.08;100.00
72409;BME280;60402;48.082;11.628;2024-01-07T04:48:02;94522.19;;;1.21;100.00
72409;BME280;60402;48.082;11.628;2024-01-07T04:50:47;94519.44;;;1.17;100.00
72409;BME280;60402;48.082;11.628;2024-01-07T04:53:33;94504.00;;;1.09;100.00
72409;BME280;60402;48.082;11.628;2024-01-07T04:56:19;94492.56;;;0.93;100.00
72409;BME280;60402;48.082;11.628;2024-01-07T04:59:05;94508.03;;;0.97;100.00
72409;BME280;60402;48.082;11.628;2024-01-07T05:01:50;94529.06;;;1.06;100.00
72409;BME280;60402;48.082;11.628;2024-01-07T05:04:36;94516.72;;;1.03;100.00
72409;BME280;60402;48.082;11.628;2024-01-07T05:07:22;94529.00;;;1.13;100.00
72409;BME280;60402;48.082;11.628;2024-01-07T05:10:08;94511.59;;;1.01;100.00
72409;BME280;60402;48.082;11.628;2024-01-07T05:12:54;94470.88;;;0.66;100.00
72409;BME280;60402;48.082;11.628;2024-01-07T05:15:39;94524.69;;;1.05;100.00
72409;BME280;60402;48.082;11.628;2024-01-07T05:18:25;94540.88;;;1.20;100.00
72409;BME280;60402;48.082;11.628;2024-01-07T05:21:11;94544.88;;;1.16;100.00
72409;BME280;60402;48.082;11.628;2024-01-07T05:23:56;94530.16;;;1.19;100.00
72409;BME280;60402;48.082;11.628;2024-01-07T05:26:43;94540.47;;;1.22;100.00
72409;BME280;60402;48.082;11.628;2024-01-07T05:29:29;94531.81;;;1.09;100.00
72409;BME280;60402;48.082;11.628;2024-01-07T05:32:15;94523.53;;;0.98;100.00
72409;BME280;60402;48.082;11.628;2024-01-07T05:35:01;94535.81;;;1.05;100.00
72409;BME280;60402;48.082;11.628;2024-01-07T05:37:47;94514.44;;;0.87;100.00
72409;BME280;60402;48.082;11.628;2024-01-07T05:40:32;94524.72;;;1.01;100.00
72409;BME280;60402;48.082;11.628;2024-01-07T05:43:18;94525.16;;;0.92;100.00
72409;BME280;60402;48.082;11.628;2024-01-07T05:46:04;94552.88;;;1.14;100.00
72409;BME280;60402;48.082;11.628;2024-01-07T05:48:49;94515.66;;;0.90;100.00
72409;BME280;60402;48.082;11.628;2024-01-07T05:51:41;94531.88;;;0.98;100.00
72409;BME280;60402;48.082;11.628;2024-01-07T05:54:27;94554.50;;;1.04;100.00
72409;BME280;60402;48.082;11.628;2024-01-07T05:57:13;94549.38;;;0.99;100.00
72409;BME280;60402;48.082;11.628;2024-01-07T05:59:58;94549.38;;;0.95;100.00
72409;BME280;60402;48.082;11.628;2024-01-07T06:02:44;94562.00;;;1.11;100.00
72409;BME280;60402;48.082;11.628;2024-01-07T06:05:30;94547.34;;;1.03;100.00
72409;BME280;60402;48.082;11.628;2024-01-07T06:08:16;94552.88;;;1.10;100.00
72409;BME280;60402;48.082;11.628;2024-01-07T06:11:02;94561.59;;;1.12;100.00
72409;BME280;60402;48.082;11.628;2024-01-07T06:13:47;94571.09;;;1.22;100.00
72409;BME280;60402;48.082;11.628;2024-01-07T06:16:33;94563.56;;;1.22;100.00
72409;BME280;60402;48.082;11.628;2024-01-07T06:19:19;94563.16;;;1.17;100.00
72409;BME280;60402;48.082;11.628;2024-01-07T06:22:05;94576.69;;;1.15;100.00
72409;BME280;60402;48.082;11.628;2024-01-07T06:24:50;94570.78;;;1.09;100.00
72409;BME280;60402;48.082;11.628;2024-01-07T06:27:38;94578.28;;;1.16;100.00
72409;BME280;60402;48.082;11.628;2024-01-07T06:30:24;94548.97;;;0.93;100.00
72409;BME280;60402;48.082;11.628;2024-01-07T06:33:10;94571.63;;;0.99;100.00
72409;BME280;60402;48.082;11.628;2024-01-07T06:35:55;94578.75;;;1.04;100.00
72409;BME280;60402;48.082;11.628;2024-01-07T06:38:41;94583.06;;;1.15;100.00
72409;BME280;60402;48.082;11.628;2024-01-07T06:41:26;94599.78;;;1.08;100.00
72409;BME280;60402;48.082;11.628;2024-01-07T06:44:12;94589.41;;;1.19;100.00
72409;BME280;60402;48.082;11.628;2024-01-07T06:46:58;94539.94;;;0.75;100.00
72409;BME280;60402;48.082;11.628;2024-01-07T06:49:43;94591.91;;;0.96;100.00
72409;BME280;60402;48.082;11.628;2024-01-07T06:52:29;94599.38;;;1.13;100.00
72409;BME280;60402;48.082;11.628;2024-01-07T06:55:15;94604.59;;;0.93;100.00
72409;BME280;60402;48.082;11.628;2024-01-07T06:58:00;94622.84;;;1.09;100.00
72409;BME280;60402;48.082;11.628;2024-01-07T07:00:46;94615.75;;;0.93;100.00
72409;BME280;60402;48.082;11.628;2024-01-07T07:03:32;94619.78;;;0.78;100.00
72409;BME280;60402;48.082;11.628;2024-01-07T07:06:17;94620.13;;;0.87;100.00
72409;BME280;60402;48.082;11.628;2024-01-07T07:09:03;94606.66;;;0.75;100.00
72409;BME280;60402;48.082;11.628;2024-01-07T07:11:48;94558.31;;;0.47;100.00
72409;BME280;60402;48.082;11.628;2024-01-07T07:14:34;94588.81;;;0.65;100.00
72409;BME280;60402;48.082;11.628;2024-01-07T07:17:20;94596.78;;;0.63;100.00
72409;BME280;60402;48.082;11.628;2024-01-07T07:20:06;94611.06;;;0.76;100.00
72409;BME280;60402;48.082;11.628;2024-01-07T07:22:52;94611.84;;;0.69;100.00
72409;BME280;60402;48.082;11.628;2024-01-07T07:25:37;94632.88;;;0.81;100.00
72409;BME280;60402;48.082;11.628;2024-01-07T07:28:23;94615.41;;;0.73;100.00
72409;BME280;60402;48.082;11.628;2024-01-07T07:31:10;94634.09;;;0.80;100.00
72409;BME280;60402;48.082;11.628;2024-01-07T07:33:57;94643.22;;;0.77;100.00
72409;BME280;60402;48.082;11.628;2024-01-07T07:36:42;94652.72;;;0.90;100.00
72409;BME280;60402;48.082;11.628;2024-01-07T07:39:30;94632.50;;;0.72;100.00
72409;BME280;60402;48.082;11.628;2024-01-07T07:42:16;94651.53;;;0.88;100.00
72409;BME280;60402;48.082;11.628;2024-01-07T07:45:02;94658.75;;;0.71;100.00
72409;BME280;60402;48.082;11.628;2024-01-07T07:47:48;94646.47;;;0.58;100.00
72409;BME280;60402;48.082;11.628;2024-01-07T07:50:33;94640.84;;;0.68;100.00
72409;BME280;60402;48.082;11.628;2024-01-07T07:53:19;94650.78;;;0.76;100.00
72409;BME280;60402;48.082;11.628;2024-01-07T07:56:05;94669.03;;;0.77;100.00
72409;BME280;60402;48.082;11.628;2024-01-07T07:58:51;94672.56;;;0.89;100.00
72409;BME280;60402;48.082;11.628;2024-01-07T08:01:37;94658.34;;;0.65;100.00
72409;BME280;60402;48.082;11.628;2024-01-07T08:04:22;94676.19;;;0.79;100.00
72409;BME280;60402;48.082;11.628;2024-01-07T08:07:09;94683.75;;;0.78;100.00
72409;BME280;60402;48.082;11.628;2024-01-07T08:09:54;94662.31;;;0.61;100.00
72409;BME280;60402;48.082;11.628;2024-01-07T08:12:42;94660.31;;;0.75;100.00
72409;BME280;60402;48.082;11.628;2024-01-07T08:15:28;94676.22;;;0.68;100.00
72409;BME280;60402;48.082;11.628;2024-01-07T08:18:13;94633.78;;;0.39;100.00
72409;BME280;60402;48.082;11.628;2024-01-07T08:20:59;94663.50;;;0.60;100.00
72409;BME280;60402;48.082;11.628;2024-01-07T08:23:44;94695.69;;;0.64;100.00
72409;BME280;60402;48.082;11.628;2024-01-07T08:26:30;94700.44;;;0.71;100.00
72409;BME280;60402;48.082;11.628;2024-01-07T08:29:17;94698.06;;;0.69;100.00
72409;BME280;60402;48.082;11.628;2024-01-07T08:32:02;94652.03;;;0.43;100.00
72409;BME280;60402;48.082;11.628;2024-01-07T08:34:48;94709.97;;;0.77;100.00
72409;BME280;60402;48.082;11.628;2024-01-07T08:37:34;94677.03;;;0.61;100.00
72409;BME280;60402;48.082;11.628;2024-01-07T08:40:19;94697.66;;;0.71;100.00
72409;BME280;60402;48.082;11.628;2024-01-07T08:43:05;94729.44;;;0.81;100.00
72409;BME280;60402;48.082;11.628;2024-01-07T08:45:51;94700.84;;;0.55;100.00
72409;BME280;60402;48.082;11.628;2024-01-07T08:48:36;94688.56;;;0.45;100.00
72409;BME280;60402;48.082;11.628;2024-01-07T08:51:22;94730.22;;;0.77;100.00
72409;BME280;60402;48.082;11.628;2024-01-07T08:54:08;94698.06;;;0.73;100.00
72409;BME280;60402;48.082;11.628;2024-01-07T08:56:53;94730.19;;;0.99;100.00
72409;BME280;60402;48.082;11.628;2024-01-07T08:59:39;94728.22;;;0.89;100.00
72409;BME280;60402;48.082;11.628;2024-01-07T09:02:25;94736.16;;;0.90;100.00
72409;BME280;60402;48.082;11.628;2024-01-07T09:05:10;94746.88;;;0.99;100.00
72409;BME280;60402;48.082;11.628;2024-01-07T09:07:57;94725.03;;;0.87;100.00
72409;BME280;60402;48.082;11.628;2024-01-07T09:10:43;94730.22;;;0.70;100.00
72409;BME280;60402;48.082;11.628;2024-01-07T09:13:29;94744.91;;;0.78;100.00
72409;BME280;60402;48.082;11.628;2024-01-07T09:16:14;94759.19;;;1.01;100.00
72409;BME280;60402;48.082;11.628;2024-01-07T09:19:00;94733.41;;;0.76;100.00
72409;BME280;60402;48.082;11.628;2024-01-07T09:21:47;94751.28;;;0.71;100.00
72409;BME280;60402;48.082;11.628;2024-01-07T09:24:32;94758.00;;;0.85;100.00
72409;BME280;60402;48.082;11.628;2024-01-07T09:27:18;94738.56;;;0.74;100.00
72409;BME280;60402;48.082;11.628;2024-01-07T09:30:04;94770.31;;;1.05;100.00
72409;BME280;60402;48.082;11.628;2024-01-07T09:32:51;94761.59;;;0.99;100.00
72409;BME280;60402;48.082;11.628;2024-01-07T09:35:36;94756.03;;;0.89;100.00
72409;BME280;60402;48.082;11.628;2024-01-07T09:38:22;94769.13;;;0.85;100.00
72409;BME280;60402;48.082;11.628;2024-01-07T09:41:10;94780.28;;;0.99;100.00
72409;BME280;60402;48.082;11.628;2024-01-07T09:43:56;94769.13;;;1.02;100.00
72409;BME280;60402;48.082;11.628;2024-01-07T09:46:44;94771.09;;;1.02;100.00
72409;BME280;60402;48.082;11.628;2024-01-07T09:49:34;94764.38;;;0.78;100.00
72409;BME280;60402;48.082;11.628;2024-01-07T09:52:20;94772.31;;;1.05;100.00
72409;BME280;60402;48.082;11.628;2024-01-07T09:55:09;94769.53;;;1.01;100.00
72409;BME280;60402;48.082;11.628;2024-01-07T09:57:54;94758.78;;;1.07;100.00
72409;BME280;60402;48.082;11.628;2024-01-07T10:00:40;94763.56;;;0.92;100.00
72409;BME280;60402;48.082;11.628;2024-01-07T10:03:26;94756.41;;;1.09;100.00
72409;BME280;60402;48.082;11.628;2024-01-07T10:06:12;94780.25;;;1.13;100.00
72409;BME280;60402;48.082;11.628;2024-01-07T10:08:58;94778.97;;;1.36;100.00
72409;BME280;60402;48.082;11.628;2024-01-07T10:11:44;94774.59;;;1.42;100.00
72409;BME280;60402;48.082;11.628;2024-01-07T10:14:30;94778.22;;;1.17;100.00
72409;BME280;60402;48.082;11.628;2024-01-07T10:17:17;94768.75;;;0.90;100.00
72409;BME280;60402;48.082;11.628;2024-01-07T10:20:04;94774.22;;;1.22;100.00
72409;BME280;60402;48.082;11.628;2024-01-07T10:22:50;94758.81;;;0.99;100.00
72409;BME280;60402;48.082;11.628;2024-01-07T10:25:36;94767.16;;;0.82;100.00
72409;BME280;60402;48.082;11.628;2024-01-07T10:28:23;94772.28;;;1.19;100.00
72409;BME280;60402;48.082;11.628;2024-01-07T10:31:09;94766.72;;;1.08;100.00
72409;BME280;60402;48.082;11.628;2024-01-07T10:33:56;94781.00;;;1.21;100.00
72409;BME280;60402;48.082;11.628;2024-01-07T10:36:41;94780.97;;;1.32;100.00
72409;BME280;60402;48.082;11.628;2024-01-07T10:39:28;94755.59;;;1.12;100.00
72409;BME280;60402;48.082;11.628;2024-01-07T10:42:14;94783.38;;;1.33;100.00
72409;BME280;60402;48.082;11.628;2024-01-07T10:45:02;94771.47;;;1.11;100.00
72409;BME280;60402;48.082;11.628;2024-01-07T10:47:49;94768.31;;;0.98;100.00
72409;BME280;60402;48.082;11.628;2024-01-07T10:50:39;94759.59;;;0.89;100.00
72409;BME280;60402;48.082;11.628;2024-01-07T10:53:28;94780.66;;;0.94;100.00
72409;BME280;60402;48.082;11.628;2024-01-07T10:56:24;94784.97;;;1.23;100.00
72409;BME280;60402;48.082;11.628;2024-01-07T10:59:10;94752.41;;;1.10;100.00
72409;BME280;60402;48.082;11.628;2024-01-07T11:01:56;94776.22;;;1.25;100.00
72409;BME280;60402;48.082;11.628;2024-01-07T11:04:56;94764.31;;;1.21;100.00
72409;BME280;60402;48.082;11.628;2024-01-07T11:07:55;94786.16;;;1.30;100.00
72409;BME280;60402;48.082;11.628;2024-01-07T11:10:44;94790.50;;;1.34;100.00
72409;BME280;60402;48.082;11.628;2024-01-07T11:13:35;94745.28;;;1.01;100.00
72409;BME280;60402;48.082;11.628;2024-01-07T11:16:42;94776.69;;;0.73;100.00
72409;BME280;60402;48.082;11.628;2024-01-07T11:19:27;94789.44;;;0.71;100.00
72409;BME280;60402;48.082;11.628;2024-01-07T11:22:29;94772.34;;;0.76;100.00
72409;BME280;60402;48.082;11.628;2024-01-07T11:25:28;94787.84;;;0.66;100.00
72409;BME280;60402;48.082;11.628;2024-01-07T11:28:16;94800.56;;;0.85;100.00
72409;BME280;60402;48.082;11.628;2024-01-07T11:31:02;94778.69;;;0.59;100.00
72409;BME280;60402;48.082;11.628;2024-01-07T11:33:49;94792.19;;;0.82;100.00
72409;BME280;60402;48.082;11.628;2024-01-07T11:36:36;94777.09;;;0.79;100.00
72409;BME280;60402;48.082;11.628;2024-01-07T11:39:22;94774.72;;;0.81;100.00
72409;BME280;60402;48.082;11.628;2024-01-07T11:42:07;94785.03;;;0.45;100.00
72409;BME280;60402;48.082;11.628;2024-01-07T11:44:54;94769.94;;;0.74;100.00
72409;BME280;60402;48.082;11.628;2024-01-07T11:47:40;94778.31;;;0.85;100.00
72409;BME280;60402;48.082;11.628;2024-01-07T11:50:26;94789.41;;;0.82;100.00
72409;BME280;60402;48.082;11.628;2024-01-07T11:53:13;94755.66;;;0.69;100.00
72409;BME280;60402;48.082;11.628;2024-01-07T11:55:59;94775.94;;;0.62;100.00
72409;BME280;60402;48.082;11.628;2024-01-07T11:58:44;94773.53;;;0.68;100.00
72409;BME280;60402;48.082;11.628;2024-01-07T12:01:30;94794.97;;;0.99;100.00
72409;BME280;60402;48.082;11.628;2024-01-07T12:04:16;94783.47;;;0.72;100.00
72409;BME280;60402;48.082;11.628;2024-01-07T12:07:02;94773.13;;;0.30;100.00
72409;BME280;60402;48.082;11.628;2024-01-07T12:09:55;94791.41;;;0.63;100.00
72409;BME280;60402;48.082;11.628;2024-01-07T12:12:42;94804.13;;;0.79;100.00
72409;BME280;60402;48.082;11.628;2024-01-07T12:15:28;94796.56;;;0.68;100.00
72409;BME280;60402;48.082;11.628;2024-01-07T12:18:14;94792.59;;;0.84;100.00
72409;BME280;60402;48.082;11.628;2024-01-07T12:21:00;94805.69;;;0.83;100.00
72409;BME280;60402;48.082;11.628;2024-01-07T12:23:50;94785.84;;;0.99;100.00
72409;BME280;60402;48.082;11.628;2024-01-07T12:26:36;94794.56;;;0.40;100.00
72409;BME280;60402;48.082;11.628;2024-01-07T12:29:23;94806.47;;;0.41;100.00
72409;BME280;60402;48.082;11.628;2024-01-07T12:32:10;94803.25;;;0.14;100.00
72409;BME280;60402;48.082;11.628;2024-01-07T12:34:59;94792.06;;;-0.15;100.00
72409;BME280;60402;48.082;11.628;2024-01-07T12:37:48;94807.63;;;0.01;100.00
72409;BME280;60402;48.082;11.628;2024-01-07T12:40:34;94797.59;;;-0.29;100.00
72409;BME280;60402;48.082;11.628;2024-01-07T12:43:20;94817.50;;;-0.09;100.00
72409;BME280;60402;48.082;11.628;2024-01-07T12:46:06;94822.63;;;-0.15;100.00
72409;BME280;60402;48.082;11.628;2024-01-07T12:48:52;94810.31;;;-0.28;100.00
72409;BME280;60402;48.082;11.628;2024-01-07T12:51:37;94822.28;;;-0.03;100.00
72409;BME280;60402;48.082;11.628;2024-01-07T12:54:23;94813.09;;;-0.28;100.00
72409;BME280;60402;48.082;11.628;2024-01-07T12:57:10;94806.34;;;-0.20;100.00
72409;BME280;60402;48.082;11.628;2024-01-07T12:59:55;94813.63;;;0.35;100.00
72409;BME280;60402;48.082;11.628;2024-01-07T13:02:42;94833.47;;;0.40;100.00
72409;BME280;60402;48.082;11.628;2024-01-07T13:05:27;94819.97;;;0.46;100.00
72409;BME280;60402;48.082;11.628;2024-01-07T13:08:13;94826.75;;;0.48;100.00
72409;BME280;60402;48.082;11.628;2024-01-07T13:10:59;94839.03;;;0.19;100.00
72409;BME280;60402;48.082;11.628;2024-01-07T13:13:46;94841.28;;;-0.12;100.00
72409;BME280;60402;48.082;11.628;2024-01-07T13:16:32;94840.84;;;-0.21;100.00
72409;BME280;60402;48.082;11.628;2024-01-07T13:19:18;94845.63;;;-0.14;100.00
72409;BME280;60402;48.082;11.628;2024-01-07T13:22:03;94859.13;;;-0.16;100.00
72409;BME280;60402;48.082;11.628;2024-01-07T13:24:49;94851.97;;;-0.21;100.00
72409;BME280;60402;48.082;11.628;2024-01-07T13:27:35;94846.34;;;-0.35;100.00
72409;BME280;60402;48.082;11.628;2024-01-07T13:30:21;94840.94;;;-0.03;100.00
72409;BME280;60402;48.082;11.628;2024-01-07T13:33:07;94868.25;;;-0.16;100.00
72409;BME280;60402;48.082;11.628;2024-01-07T13:39:35;94877.06;;;-0.72;100.00
72409;BME280;60402;48.082;11.628;2024-01-07T13:42:21;94874.25;;;-0.76;100.00
72409;BME280;60402;48.082;11.628;2024-01-07T13:45:07;94877.56;;;-0.60;100.00
72409;BME280;60402;48.082;11.628;2024-01-07T13:47:53;94863.88;;;-0.93;100.00
72409;BME280;60402;48.082;11.628;2024-01-07T13:50:38;94868.25;;;-0.85;100.00
72409;BME280;60402;48.082;11.628;2024-01-07T13:53:24;94875.44;;;-0.77;100.00
72409;BME280;60402;48.082;11.628;2024-01-07T13:56:10;94891.44;;;-0.56;100.00
72409;BME280;60402;48.082;11.628;2024-01-07T13:58:55;94880.06;;;-0.37;100.00
72409;BME280;60402;48.082;11.628;2024-01-07T14:01:41;94911.03;;;-0.31;100.00
72409;BME280;60402;48.082;11.628;2024-01-07T14:04:28;94881.28;;;-0.31;100.00
72409;BME280;60402;48.082;11.628;2024-01-07T14:07:14;94869.69;;;-0.50;100.00
72409;BME280;60402;48.082;11.628;2024-01-07T14:10:00;94894.31;;;-0.38;100.00
72409;BME280;60402;48.082;11.628;2024-01-07T14:12:48;94892.78;;;-0.29;100.00
72409;BME280;60402;48.082;11.628;2024-01-07T14:15:34;94898.13;;;-0.64;100.00
72409;BME280;60402;48.082;11.628;2024-01-07T14:18:20;94890.63;;;-0.60;100.00
72409;BME280;60402;48.082;11.628;2024-01-07T14:21:08;94878.19;;;-0.81;100.00
72409;BME280;60402;48.082;11.628;2024-01-07T14:23:54;94914.44;;;-0.56;100.00
72409;BME280;60402;48.082;11.628;2024-01-07T14:26:40;94914.91;;;-0.46;100.00
72409;BME280;60402;48.082;11.628;2024-01-07T14:29:27;94912.34;;;-0.73;100.00